createdAt,value
2018-06-10T00:00:34.130Z,97394.67
2018-06-10T00:03:01.877Z,97395.97
2018-06-10T00:05:29.441Z,97402.20
2018-06-10T00:07:57.187Z,97396.19
2018-06-10T00:10:24.764Z,97395.71
2018-06-10T00:12:52.347Z,97388.34
2018-06-10T00:15:20.022Z,97385.52
2018-06-10T00:17:47.584Z,97383.25
2018-06-10T00:20:15.374Z,97376.86
2018-06-10T00:22:42.999Z,97380.91
2018-06-10T00:25:10.543Z,97376.68
2018-06-10T00:27:38.314Z,97379.08
2018-06-10T00:30:05.887Z,97376.31
2018-06-10T00:32:33.607Z,97376.10
2018-06-10T00:35:01.215Z,97368.52
2018-06-10T00:37:28.754Z,97371.64
2018-06-10T00:39:56.563Z,97371.66
2018-06-10T00:42:24.102Z,97371.84
2018-06-10T00:44:51.728Z,97372.94
2018-06-10T00:47:19.515Z,97369.01
2018-06-10T00:49:47.098Z,97367.26
2018-06-10T00:52:14.905Z,97365.48
2018-06-10T00:54:42.458Z,97366.78
2018-06-10T00:57:10.012Z,97369.17
2018-06-10T00:59:37.798Z,97367.00
2018-06-10T01:02:05.395Z,97361.70
2018-06-10T01:04:33.108Z,97364.50
2018-06-10T01:07:00.658Z,97355.52
2018-06-10T01:09:28.243Z,97358.61
2018-06-10T01:11:55.983Z,97357.09
2018-06-10T01:14:23.532Z,97349.34
2018-06-10T01:16:51.294Z,97354.80
2018-06-10T01:19:19.850Z,97355.68
2018-06-10T01:21:47.392Z,97352.42
2018-06-10T01:24:15.162Z,97354.82
2018-06-10T01:26:48.358Z,97348.52
2018-06-10T01:29:15.981Z,97347.16
2018-06-10T01:31:43.707Z,97341.04
2018-06-10T01:34:11.242Z,97341.81
2018-06-10T01:36:39.032Z,97344.20
2018-06-10T01:39:06.710Z,97340.91
2018-06-10T01:41:34.411Z,97341.20
2018-06-10T01:44:02.187Z,97344.70
2018-06-10T01:46:29.732Z,97330.44
2018-06-10T01:48:57.428Z,97335.05
2018-06-10T01:51:25.029Z,97337.00
2018-06-10T01:53:52.560Z,97345.34
2018-06-10T01:56:20.347Z,97339.09
2018-06-10T01:58:47.918Z,97345.23
2018-06-10T02:01:15.608Z,97344.63
2018-06-10T02:03:43.252Z,97345.28
2018-06-10T02:06:10.895Z,97340.30
2018-06-10T02:08:39.254Z,97341.87
2018-06-10T02:11:06.843Z,97342.88
2018-06-10T02:13:34.434Z,97340.09
2018-06-10T02:16:02.164Z,97345.55
2018-06-10T02:18:29.723Z,97349.94
2018-06-10T02:20:57.438Z,97348.95
2018-06-10T02:23:25.057Z,97354.45
2018-06-10T02:25:52.615Z,97356.23
2018-06-10T02:28:20.387Z,97347.89
2018-06-10T02:30:47.926Z,97359.09
2018-06-10T02:33:15.631Z,97364.44
2018-06-10T02:35:43.302Z,97357.41
2018-06-10T02:38:10.867Z,97357.92
2018-06-10T02:40:38.615Z,97356.69
2018-06-10T02:43:06.178Z,97357.10
2018-06-10T02:45:33.838Z,97356.34
2018-06-10T02:48:01.625Z,97355.28
2018-06-10T02:50:29.218Z,97353.22
2018-06-10T02:52:57.003Z,97358.61
2018-06-10T02:55:24.542Z,97354.21
2018-06-10T02:57:52.168Z,97356.72
2018-06-10T03:00:19.922Z,97363.03
2018-06-10T03:02:47.460Z,97365.38
2018-06-10T03:05:15.200Z,97366.55
2018-06-10T03:07:42.748Z,97369.41
2018-06-10T03:10:10.299Z,97369.13
2018-06-10T03:12:38.065Z,97374.34
2018-06-10T03:15:05.628Z,97372.66
2018-06-10T03:17:33.339Z,97376.61
2018-06-10T03:20:00.956Z,97374.06
2018-06-10T03:22:28.492Z,97377.81
2018-06-10T03:24:56.235Z,97378.11
2018-06-10T03:27:23.820Z,97377.19
2018-06-10T03:29:51.555Z,97373.41
2018-06-10T03:32:19.262Z,97377.92
2018-06-10T03:34:46.835Z,97374.11
2018-06-10T03:37:14.601Z,97381.05
2018-06-10T03:39:42.146Z,97379.06
2018-06-10T03:42:09.890Z,97372.22
2018-06-10T03:44:37.602Z,97365.39
2018-06-10T03:47:05.210Z,97359.75
2018-06-10T03:49:32.981Z,97363.22
2018-06-10T03:52:00.513Z,97361.99
2018-06-10T03:54:28.097Z,97359.48
2018-06-10T03:56:55.924Z,97357.42
2018-06-10T03:59:23.469Z,97354.88
2018-06-10T04:01:51.240Z,97352.82
2018-06-10T04:04:18.820Z,97348.49
2018-06-10T04:06:46.361Z,97348.42
2018-06-10T04:09:14.069Z,97352.82
2018-06-10T04:11:41.635Z,97349.73
2018-06-10T04:14:09.387Z,97350.59
2018-06-10T04:16:37.000Z,97351.03
2018-06-10T04:19:04.616Z,97353.95
2018-06-10T04:21:32.437Z,97351.24
2018-06-10T04:23:59.980Z,97349.21
2018-06-10T04:26:27.780Z,97347.83
2018-06-10T04:28:55.400Z,97347.08
2018-06-10T04:31:22.963Z,97349.55
2018-06-10T04:33:50.723Z,97346.45
2018-06-10T04:36:18.262Z,97345.77
2018-06-10T04:38:45.886Z,97346.83
2018-06-10T04:41:13.622Z,97343.84
2018-06-10T04:43:41.171Z,97349.09
2018-06-10T04:46:08.970Z,97342.90
2018-06-10T04:48:36.530Z,97349.12
2018-06-10T04:51:04.198Z,97352.39
2018-06-10T04:53:31.966Z,97350.93
2018-06-10T04:55:59.547Z,97354.95
2018-06-10T04:58:27.312Z,97349.80
2018-06-10T05:00:54.868Z,97359.39
2018-06-10T05:03:22.450Z,97354.75
2018-06-10T05:05:50.179Z,97344.71
2018-06-10T05:08:17.728Z,97344.56
2018-06-10T05:10:45.463Z,97344.84
2018-06-10T05:13:13.062Z,97345.14
2018-06-10T05:15:40.632Z,97344.59
2018-06-10T05:18:08.483Z,97343.00
2018-06-10T05:20:36.050Z,97343.53
2018-06-10T05:23:03.780Z,97335.48
2018-06-10T05:25:31.413Z,97340.81
2018-06-10T05:27:58.936Z,97338.67
2018-06-10T05:30:26.687Z,97335.75
2018-06-10T05:32:54.254Z,97335.77
2018-06-10T05:35:22.113Z,97343.66
2018-06-10T05:37:49.804Z,97342.70
2018-06-10T05:40:17.379Z,97335.39
2018-06-10T05:42:45.138Z,97331.88
2018-06-10T05:45:12.695Z,97329.79
2018-06-10T05:47:40.336Z,97329.70
2018-06-10T05:50:08.086Z,97334.79
2018-06-10T05:52:35.626Z,97335.71
2018-06-10T05:55:03.424Z,97341.66
2018-06-10T05:57:31.036Z,97331.69
2018-06-10T05:59:58.585Z,97343.53
2018-06-10T06:02:26.451Z,97347.21
2018-06-10T06:04:53.999Z,97346.53
2018-06-10T06:07:21.739Z,97345.97
2018-06-10T06:09:49.319Z,97350.86
2018-06-10T06:12:16.850Z,97352.17
2018-06-10T06:14:44.628Z,97356.50
2018-06-10T06:17:12.197Z,97353.38
2018-06-10T06:19:39.875Z,97364.27
2018-06-10T06:22:07.511Z,97357.52
2018-06-10T06:24:35.158Z,97358.46
2018-06-10T06:27:02.912Z,97358.33
2018-06-10T06:29:30.457Z,97353.11
2018-06-10T06:31:58.086Z,97357.54
2018-06-10T06:34:25.855Z,97358.72
2018-06-10T06:36:53.439Z,97362.89
2018-06-10T06:39:21.132Z,97357.52
2018-06-10T06:41:48.667Z,97356.72
2018-06-10T06:44:16.271Z,97352.81
2018-06-10T06:46:44.110Z,97349.45
2018-06-10T06:49:11.664Z,97355.05
2018-06-10T06:51:39.370Z,97355.73
2018-06-10T06:54:07.001Z,97359.55
2018-06-10T06:56:34.532Z,97358.06
2018-06-10T06:59:02.091Z,97356.70
2018-06-10T07:01:29.692Z,97357.08
2018-06-10T07:03:57.238Z,97355.03
2018-06-10T07:06:24.784Z,97360.89
2018-06-10T07:08:52.358Z,97363.77
2018-06-10T07:11:19.922Z,97360.62
2018-06-10T07:13:48.587Z,97363.58
2018-06-10T07:16:16.137Z,97361.81
2018-06-10T07:18:43.650Z,97365.66
2018-06-10T07:21:11.198Z,97363.55
2018-06-10T07:23:38.795Z,97364.72
2018-06-10T07:26:06.364Z,97364.00
2018-06-10T07:28:33.894Z,97365.12
2018-06-10T07:31:01.486Z,97368.23
2018-06-10T07:33:29.030Z,97365.89
2018-06-10T07:35:56.585Z,97370.56
2018-06-10T07:38:24.166Z,97370.42
2018-06-10T07:40:51.731Z,97371.98
2018-06-10T07:43:19.246Z,97370.09
2018-06-10T07:45:46.826Z,97362.40
2018-06-10T07:48:14.385Z,97371.14
2018-06-10T07:50:41.919Z,97369.39
2018-06-10T07:53:09.463Z,97368.86
2018-06-10T07:55:37.182Z,97357.09
2018-06-10T07:58:04.764Z,97357.02
2018-06-10T08:00:32.328Z,97358.20
2018-06-10T08:02:59.865Z,97357.02
2018-06-10T08:05:27.495Z,97354.94
2018-06-10T08:07:55.066Z,97349.33
2018-06-10T08:10:22.600Z,97356.08
2018-06-10T08:12:50.165Z,97352.80
2018-06-10T08:15:17.775Z,97350.00
2018-06-10T08:17:45.302Z,97350.77
2018-06-10T08:20:12.824Z,97351.95
2018-06-10T08:22:40.395Z,97354.61
2018-06-10T08:25:08.013Z,97353.14
2018-06-10T08:27:35.579Z,97351.95
2018-06-10T08:30:03.438Z,97345.39
2018-06-10T08:32:31.002Z,97344.91
2018-06-10T08:34:58.542Z,97337.23
2018-06-10T08:37:26.149Z,97339.45
2018-06-10T08:39:53.638Z,97345.12
2018-06-10T08:42:21.198Z,97345.52
2018-06-10T08:44:48.763Z,97342.33
2018-06-10T08:47:16.280Z,97340.25
2018-06-10T08:49:43.862Z,97355.00
2018-06-10T08:52:11.438Z,97344.01
2018-06-10T08:54:39.016Z,97345.85
2018-06-10T08:57:06.567Z,97346.11
2018-06-10T08:59:34.855Z,97346.02
2018-06-10T09:02:02.389Z,97343.50
2018-06-10T09:04:29.949Z,97347.02
2018-06-10T09:06:57.527Z,97352.95
2018-06-10T09:09:25.074Z,97355.27
2018-06-10T09:11:52.628Z,97354.81
2018-06-10T09:14:20.170Z,97346.05
2018-06-10T09:16:47.717Z,97349.36
2018-06-10T09:19:15.257Z,97349.55
2018-06-10T09:21:42.822Z,97353.77
2018-06-10T09:24:10.359Z,97347.10
2018-06-10T09:26:37.909Z,97357.95
2018-06-10T09:29:05.480Z,97354.69
2018-06-10T09:31:33.006Z,97347.62
2018-06-10T09:34:00.554Z,97349.27
2018-06-10T09:36:28.130Z,97350.42
2018-06-10T09:38:55.683Z,97351.27
2018-06-10T09:41:23.236Z,97350.60
2018-06-10T09:43:50.795Z,97347.36
2018-06-10T09:46:18.384Z,97351.78
2018-06-10T09:48:45.922Z,97353.02
2018-06-10T09:51:13.531Z,97350.34
2018-06-10T09:53:41.126Z,97353.59
2018-06-10T09:56:08.693Z,97347.78
2018-06-10T09:58:36.275Z,97346.70
2018-06-10T10:01:03.809Z,97344.09
2018-06-10T10:03:31.517Z,97335.20
2018-06-10T10:05:59.107Z,97335.56
2018-06-10T10:08:26.644Z,97334.33
2018-06-10T10:10:54.225Z,97330.23
2018-06-10T10:13:21.961Z,97333.70
2018-06-10T10:15:49.555Z,97330.70
2018-06-10T10:18:17.098Z,97330.89
2018-06-10T10:20:44.655Z,97331.26
2018-06-10T10:23:12.307Z,97327.17
2018-06-10T10:25:39.885Z,97326.97
2018-06-10T10:28:07.495Z,97328.59
2018-06-10T10:30:35.298Z,97327.02
2018-06-10T10:33:02.819Z,97324.64
2018-06-10T10:35:30.390Z,97322.99
2018-06-10T10:37:57.938Z,97321.30
2018-06-10T10:40:25.526Z,97323.83
2018-06-10T10:42:53.166Z,97326.98
2018-06-10T10:45:20.725Z,97326.01
2018-06-10T10:47:48.260Z,97315.95
2018-06-10T10:50:15.887Z,97315.47
2018-06-10T10:52:43.406Z,97325.83
2018-06-10T10:55:10.983Z,97326.41
2018-06-10T10:57:38.555Z,97321.42
2018-06-10T11:00:06.121Z,97320.82
2018-06-10T11:02:33.625Z,97314.64
2018-06-10T11:05:01.208Z,97314.56
2018-06-10T11:07:28.719Z,97311.11
2018-06-10T11:09:56.224Z,97309.97
2018-06-10T11:12:23.780Z,97307.85
2018-06-10T11:14:51.344Z,97305.84
2018-06-10T11:17:18.884Z,97295.07
2018-06-10T11:19:46.435Z,97297.16
2018-06-10T11:22:13.959Z,97292.00
2018-06-10T11:24:41.499Z,97296.96
2018-06-10T11:27:09.129Z,97292.50
2018-06-10T11:29:36.586Z,97296.38
2018-06-10T11:32:04.078Z,97294.80
2018-06-10T11:34:31.679Z,97290.54
2018-06-10T11:36:59.173Z,97286.07
2018-06-10T11:39:26.715Z,97287.30
2018-06-10T11:41:54.274Z,97291.84
2018-06-10T11:44:21.813Z,97290.88
2018-06-10T11:46:49.545Z,97284.03
2018-06-10T11:49:17.474Z,97290.91
2018-06-10T11:51:44.978Z,97274.22
2018-06-10T11:54:12.727Z,97276.00
2018-06-10T11:56:40.467Z,97267.09
2018-06-10T11:59:08.002Z,97264.26
2018-06-10T12:01:35.543Z,97267.48
2018-06-10T12:04:03.107Z,97253.39
2018-06-10T12:06:30.651Z,97255.27
2018-06-10T12:08:58.210Z,97251.81
2018-06-10T12:11:25.783Z,97243.70
2018-06-10T12:13:53.322Z,97243.75
2018-06-10T12:16:20.872Z,97236.13
2018-06-10T12:18:48.693Z,97233.00
2018-06-10T12:21:16.226Z,97225.05
2018-06-10T12:23:43.810Z,97224.10
2018-06-10T12:26:11.382Z,97225.75
2018-06-10T12:28:38.918Z,97229.38
2018-06-10T12:31:06.700Z,97231.63
2018-06-10T12:33:34.252Z,97234.87
2018-06-10T12:36:01.874Z,97225.64
2018-06-10T12:38:29.388Z,97233.04
2018-06-10T12:40:57.121Z,97231.77
2018-06-10T12:43:24.630Z,97236.67
2018-06-10T12:45:52.572Z,97222.95
2018-06-10T12:48:20.194Z,97222.16
2018-06-10T12:50:47.795Z,97219.37
2018-06-10T12:53:15.485Z,97234.41
2018-06-10T12:55:43.062Z,97227.42
2018-06-10T12:58:10.566Z,97227.48
2018-06-10T13:00:38.107Z,97212.80
2018-06-10T13:03:05.835Z,97212.03
2018-06-10T13:05:33.662Z,97212.70
2018-06-10T13:08:01.186Z,97215.19
2018-06-10T13:10:28.769Z,97213.06
2018-06-10T13:12:56.330Z,97207.79
2018-06-10T13:15:23.858Z,97209.53
2018-06-10T13:17:51.414Z,97210.95
2018-06-10T13:20:18.932Z,97213.03
2018-06-10T13:22:46.459Z,97221.34
2018-06-10T13:25:14.016Z,97225.47
2018-06-10T13:27:41.644Z,97231.39
2018-06-10T13:30:09.107Z,97229.75
2018-06-10T13:32:36.752Z,97228.89
2018-06-10T13:35:04.285Z,97225.42
2018-06-10T13:37:31.782Z,97238.30
2018-06-10T13:39:59.380Z,97230.98
2018-06-10T13:42:26.909Z,97227.44
2018-06-10T13:44:54.418Z,97225.33
2018-06-10T13:47:21.970Z,97217.88
2018-06-10T13:49:49.466Z,97231.05
2018-06-10T13:52:16.998Z,97228.31
2018-06-10T13:54:44.550Z,97227.83
2018-06-10T13:57:12.049Z,97231.09
2018-06-10T13:59:39.552Z,97222.03
2018-06-10T14:02:07.143Z,97236.50
2018-06-10T14:04:34.666Z,97231.86
2018-06-10T14:07:02.226Z,97223.61
2018-06-10T14:09:29.758Z,97227.05
2018-06-10T14:11:57.373Z,97221.48
2018-06-10T14:14:24.874Z,97224.48
2018-06-10T14:16:52.401Z,97222.75
2018-06-10T14:19:19.953Z,97223.27
2018-06-10T14:21:47.458Z,97218.30
2018-06-10T14:24:14.994Z,97219.14
2018-06-10T14:26:42.494Z,97211.23
2018-06-10T14:29:10.033Z,97209.09
2018-06-10T14:31:37.606Z,97205.69
2018-06-10T14:34:05.130Z,97197.97
2018-06-10T14:36:32.618Z,97198.14
2018-06-10T14:39:00.177Z,97199.56
2018-06-10T14:41:27.697Z,97196.47
2018-06-10T14:43:55.213Z,97201.43
2018-06-10T14:46:22.746Z,97211.49
2018-06-10T14:48:50.281Z,97216.27
2018-06-10T14:51:17.834Z,97211.68
2018-06-10T14:53:45.385Z,97207.32
2018-06-10T14:56:12.901Z,97205.52
2018-06-10T14:58:40.402Z,97208.05
2018-06-10T15:01:07.946Z,97209.28
2018-06-10T15:03:35.491Z,97210.05
2018-06-10T15:06:03.262Z,97212.55
2018-06-10T15:08:31.018Z,97222.07
2018-06-10T15:10:58.572Z,97218.97
2018-06-10T15:13:26.379Z,97217.03
2018-06-10T15:15:54.031Z,97207.11
2018-06-10T15:18:21.586Z,97201.08
2018-06-10T15:20:49.410Z,97204.22
2018-06-10T15:23:16.990Z,97208.16
2018-06-10T15:25:44.725Z,97204.37
2018-06-10T15:28:12.308Z,97208.76
2018-06-10T15:30:40.007Z,97210.48
2018-06-10T15:33:07.758Z,97207.33
2018-06-10T15:35:35.273Z,97208.65
2018-06-10T15:38:02.948Z,97209.77
2018-06-10T15:40:30.723Z,97202.88
2018-06-10T15:42:58.254Z,97204.60
2018-06-10T15:45:26.240Z,97199.13
2018-06-10T15:47:53.828Z,97193.77
2018-06-10T15:50:21.460Z,97183.84
2018-06-10T15:52:49.274Z,97190.06
2018-06-10T15:55:16.798Z,97191.22
2018-06-10T15:57:44.559Z,97185.27
2018-06-10T16:00:12.302Z,97183.84
2018-06-10T16:02:39.819Z,97182.38
2018-06-10T16:05:07.655Z,97177.20
2018-06-10T16:07:35.189Z,97177.88
2018-06-10T16:10:02.865Z,97173.27
2018-06-10T16:12:30.573Z,97169.82
2018-06-10T16:14:58.314Z,97171.84
2018-06-10T16:17:26.144Z,97170.69
2018-06-10T16:19:53.670Z,97165.85
2018-06-10T16:22:21.258Z,97173.27
2018-06-10T16:24:49.021Z,97171.20
2018-06-10T16:27:16.553Z,97175.73
2018-06-10T16:29:44.333Z,97173.52
2018-06-10T16:32:11.901Z,97169.41
2018-06-10T16:34:39.475Z,97172.59
2018-06-10T16:37:07.218Z,97177.86
2018-06-10T16:39:34.934Z,97185.95
2018-06-10T16:42:02.693Z,97179.13
2018-06-10T16:44:30.303Z,97188.65
2018-06-10T16:46:57.810Z,97186.43
2018-06-10T16:49:25.638Z,97189.95
2018-06-10T16:51:53.203Z,97186.23
2018-06-10T16:54:20.919Z,97172.77
2018-06-10T16:56:48.658Z,97173.16
2018-06-10T16:59:16.239Z,97165.94
2018-06-10T17:01:44.152Z,97201.92
2018-06-10T17:04:11.646Z,97201.38
2018-06-10T17:06:39.296Z,97207.06
2018-06-10T17:36:32.314Z,97238.77
2018-06-10T17:38:59.886Z,97235.95
2018-06-10T17:41:27.486Z,97234.56
2018-06-10T17:43:55.384Z,97242.14
2018-06-10T17:46:22.920Z,97247.06
2018-06-10T17:48:50.838Z,97260.06
2018-06-10T17:51:18.550Z,97266.01
2018-06-10T17:53:46.114Z,97274.90
2018-06-10T17:56:13.907Z,97279.11
2018-06-10T17:58:41.496Z,97290.22
2018-06-10T18:01:09.329Z,97303.16
2018-06-10T18:03:36.849Z,97300.66
2018-06-10T18:06:04.460Z,97300.52
2018-06-10T18:08:32.177Z,97294.42
2018-06-10T18:10:59.927Z,97293.56
2018-06-10T18:13:27.522Z,97292.80
2018-06-10T18:15:55.306Z,97281.06
2018-06-10T18:18:22.904Z,97280.95
2018-06-10T18:20:50.634Z,97283.62
2018-06-10T18:23:18.523Z,97281.09
2018-06-10T18:25:46.070Z,97287.48
2018-06-10T18:28:13.851Z,97295.83
2018-06-10T18:30:41.506Z,97289.23
2018-06-10T18:33:09.118Z,97298.06
2018-06-10T18:35:37.013Z,97296.64
2018-06-10T18:38:04.854Z,97292.26
2018-06-10T18:40:32.496Z,97288.34
2018-06-10T18:43:00.459Z,97281.41
2018-06-10T18:45:28.268Z,97290.77
2018-06-10T18:47:56.519Z,97296.18
2018-06-10T18:50:25.071Z,97298.83
2018-06-10T18:52:52.706Z,97308.09
2018-06-10T18:55:20.438Z,97309.61
2018-06-10T18:57:48.295Z,97303.42
2018-06-10T19:00:15.939Z,97301.56
2018-06-10T19:02:43.615Z,97310.80
2018-06-10T19:05:11.198Z,97316.80
2018-06-10T19:07:38.742Z,97315.15
2018-06-10T19:10:06.283Z,97324.09
2018-06-10T19:12:34.202Z,97322.52
2018-06-10T19:15:01.831Z,97332.50
2018-06-10T19:17:29.439Z,97333.70
2018-06-10T19:19:57.374Z,97340.81
2018-06-10T19:22:24.887Z,97341.41
2018-06-10T19:24:52.619Z,97343.29
2018-06-10T19:27:20.499Z,97338.05
2018-06-10T19:29:48.034Z,97336.63
2018-06-10T19:32:15.878Z,97342.84
2018-06-10T19:34:43.450Z,97334.16
2018-06-10T19:37:11.107Z,97333.59
2018-06-10T19:39:38.879Z,97344.14
2018-06-10T19:42:06.455Z,97341.87
2018-06-10T19:44:34.287Z,97343.84
2018-06-10T19:47:02.522Z,97336.33
2018-06-10T19:49:30.103Z,97340.27
2018-06-10T19:51:57.989Z,97342.27
2018-06-10T19:54:25.508Z,97344.51
2018-06-10T19:56:53.191Z,97343.39
2018-06-10T19:59:21.226Z,97343.34
2018-06-10T20:01:48.786Z,97339.10
2018-06-10T20:04:16.588Z,97335.89
2018-06-10T20:06:44.437Z,97339.86
2018-06-10T20:09:12.039Z,97335.80
2018-06-10T20:11:39.985Z,97339.11
2018-06-10T20:14:07.537Z,97342.78
2018-06-10T20:16:35.148Z,97347.58
2018-06-10T20:19:03.150Z,97348.23
2018-06-10T20:21:30.767Z,97359.23
2018-06-10T20:23:58.472Z,97361.97
2018-06-10T20:26:26.160Z,97359.60
2018-06-10T20:28:53.747Z,97357.63
2018-06-10T20:31:21.634Z,97353.72
2018-06-10T20:33:49.233Z,97359.27
2018-06-10T20:36:16.972Z,97361.98
2018-06-10T20:38:44.837Z,97362.26
2018-06-10T20:41:12.389Z,97368.16
2018-06-10T20:43:39.910Z,97372.96
2018-06-10T20:46:07.451Z,97365.34
2018-06-10T20:48:35.150Z,97363.86
2018-06-10T20:51:02.659Z,97362.27
2018-06-10T20:53:30.243Z,97354.72
2018-06-10T20:55:57.806Z,97360.56
2018-06-10T20:58:25.342Z,97348.91
2018-06-10T21:00:52.887Z,97363.09
2018-06-10T21:03:20.431Z,97369.88
2018-06-10T21:05:47.955Z,97375.42
2018-06-10T21:08:15.482Z,97381.62
2018-06-10T21:10:43.065Z,97376.83
2018-06-10T21:13:11.213Z,97389.24
2018-06-10T21:15:38.731Z,97395.94
2018-06-10T21:18:06.314Z,97399.05
2018-06-10T21:20:34.067Z,97396.21
2018-06-10T21:23:01.587Z,97403.17
2018-06-10T21:25:29.127Z,97399.39
2018-06-10T21:27:56.667Z,97398.18
2018-06-10T21:30:24.174Z,97400.16
2018-06-10T21:32:51.756Z,97390.66
2018-06-10T21:35:19.255Z,97385.66
2018-06-10T21:37:46.790Z,97385.69
2018-06-10T21:40:14.364Z,97388.48
2018-06-10T21:42:41.902Z,97392.16
2018-06-10T21:45:09.421Z,97389.14
2018-06-10T21:47:36.983Z,97401.27
2018-06-10T21:50:04.527Z,97407.18
2018-06-10T21:52:32.083Z,97404.11
2018-06-10T21:54:59.676Z,97399.33
2018-06-10T21:57:27.231Z,97398.70
2018-06-10T21:59:54.745Z,97402.83
2018-06-10T22:02:22.314Z,97405.06
2018-06-10T22:04:49.851Z,97405.27
2018-06-10T22:07:17.397Z,97403.81
2018-06-10T22:09:44.959Z,97407.06
2018-06-10T22:12:12.540Z,97412.09
2018-06-10T22:14:40.080Z,97403.51
2018-06-10T22:17:07.625Z,97398.77
2018-06-10T22:19:35.153Z,97397.03
2018-06-10T22:22:02.703Z,97400.34
2018-06-10T22:24:30.334Z,97394.27
2018-06-10T22:26:57.906Z,97397.21
2018-06-10T22:29:25.470Z,97395.08
2018-06-10T22:31:53.093Z,97393.63
2018-06-10T22:34:20.574Z,97395.42
2018-06-10T22:36:48.148Z,97396.48
2018-06-10T22:39:15.790Z,97399.22
2018-06-10T22:41:43.346Z,97402.03
2018-06-10T22:44:10.875Z,97402.23
2018-06-10T22:46:38.451Z,97400.09
2018-06-10T22:49:05.973Z,97394.46
2018-06-10T22:51:33.525Z,97398.66
2018-06-10T22:54:12.263Z,97396.73
2018-06-10T22:56:39.823Z,97396.16
2018-06-10T22:59:07.326Z,97398.32
2018-06-10T23:01:34.920Z,97400.36
2018-06-10T23:04:02.474Z,97396.63
2018-06-10T23:06:30.074Z,97404.79
2018-06-10T23:08:57.619Z,97415.89
2018-06-10T23:11:25.156Z,97416.25
2018-06-10T23:13:52.671Z,97409.42
2018-06-10T23:16:20.240Z,97415.34
2018-06-10T23:18:47.766Z,97420.22
2018-06-10T23:21:15.301Z,97423.88
2018-06-10T23:23:42.859Z,97421.48
2018-06-10T23:26:10.403Z,97428.33
2018-06-10T23:28:37.990Z,97425.70
2018-06-10T23:31:05.699Z,97420.56
2018-06-10T23:33:33.235Z,97423.88
2018-06-10T23:36:00.762Z,97432.44
2018-06-10T23:38:28.346Z,97435.91
2018-06-10T23:40:55.872Z,97435.46
2018-06-10T23:43:23.452Z,97431.18
2018-06-10T23:48:17.909Z,97422.70
2018-06-10T23:50:45.445Z,97426.92
2018-06-10T23:53:13.022Z,97423.80
2018-06-10T23:55:40.558Z,97425.74
2018-06-10T23:58:08.080Z,97431.95
